Terminal Aerodrome Forecast
Issued by NWS Albuquerque, NM

Home | Current Version | Previous Version | Text Only | Print | Product List | Glossary On
Versions: 1 2 3 4 5 6 7 8 9 10 11 12 13 14 15 16 17 18 19 20
000
FTUS45 KABQ 211134
TAFABQ
TAF
KABQ 211134Z 2112/2212 17010KT P6SM VCSH SCT015 BKN050
      TEMPO 2112/2115 -RA BKN025
     FM211500 21011KT P6SM SCT020 BKN050
     FM211800 25018G30KT P6SM BKN060
     FM212000 30025G35KT P6SM BKN060
     FM220400 30015G24KT P6SM SCT025=

USA.gov is the U.S. government's official web portal to all federal, state and local government web resources and services.